Time;durP1;ratioP1;P1;durP2;ratioP2;P2;SDS_P1;SDS_P2;PMS_P1;PMS_P2;Temp;Humidity;BMP_temperature;BMP_pressure;BME280_temperature;BME280_humidity;BME280_pressure;Samples;Min_cycle;Max_cycle;Signal;HPM_P1;HPM_P2
2022/02/22 00:00:56;;;;;;;2.20;2.00;;;;;;;2.65;100.00;96420.75;4941468;28;20278;-54
2022/02/22 00:03:25;;;;;;;1.93;1.80;;;;;;;2.46;100.00;96406.88;4940285;28;20317;-51
2022/02/22 00:05:53;;;;;;;1.83;1.73;;;;;;;2.27;100.00;96422.72;4939121;28;20687;-55
2022/02/22 00:08:21;;;;;;;2.53;2.20;;;;;;;2.13;100.00;96431.94;4906620;28;20246;-48
2022/02/22 00:10:50;;;;;;;6.30;2.47;;;;;;;1.92;100.00;96424.38;4927806;28;20203;-49
2022/02/22 00:13:18;;;;;;;4.27;2.00;;;;;;;1.93;100.00;96426.03;4910960;28;21028;-53
2022/02/22 00:15:47;;;;;;;2.17;2.07;;;;;;;1.84;100.00;96428.53;4940333;28;20850;-53
2022/02/22 00:18:16;;;;;;;2.73;2.53;;;;;;;1.85;100.00;96429.38;4938800;28;20207;-52
2022/02/22 00:20:45;;;;;;;2.30;1.70;;;;;;;1.75;100.00;96439.06;4939892;28;20346;-53
2022/02/22 00:23:13;;;;;;;3.43;2.40;;;;;;;1.67;100.00;96435.38;4939240;28;20821;-52
2022/02/22 00:25:42;;;;;;;3.23;2.93;;;;;;;1.88;100.00;96445.56;4896008;28;20217;-55
2022/02/22 00:28:10;;;;;;;3.00;2.67;;;;;;;1.93;100.00;96454.75;4923833;28;20206;-54
2022/02/22 00:30:38;;;;;;;4.30;2.30;;;;;;;1.95;100.00;96448.41;4927693;28;20282;-54
2022/02/22 00:33:10;;;;;;;2.43;2.30;;;;;;;1.93;100.00;96452.97;4941657;28;20226;-55
2022/02/22 00:35:39;;;;;;;4.13;2.13;;;;;;;1.86;100.00;96462.34;4939477;28;20261;-56
2022/02/22 00:38:07;;;;;;;3.77;2.30;;;;;;;1.89;100.00;96472.50;4940819;28;20202;-51
2022/02/22 00:40:36;;;;;;;3.90;2.27;;;;;;;1.98;100.00;96474.22;4892124;28;20214;-54
2022/02/22 00:43:04;;;;;;;5.33;2.40;;;;;;;1.99;100.00;96473.25;4938541;28;21037;-56
2022/02/22 00:45:32;;;;;;;2.53;2.40;;;;;;;2.01;100.00;96471.31;4922496;28;20699;-49
2022/02/22 00:48:01;;;;;;;2.30;2.20;;;;;;;1.97;100.00;96477.81;4947305;28;20305;-53
2022/02/22 00:50:30;;;;;;;2.30;1.97;;;;;;;1.85;100.00;96487.66;4944363;28;20966;-53
2022/02/22 00:52:59;;;;;;;2.07;1.97;;;;;;;1.91;100.00;96488.88;4943209;28;20231;-54
2022/02/22 00:55:27;;;;;;;1.77;1.67;;;;;;;2.00;100.00;96501.03;4904608;28;20411;-53
2022/02/22 00:57:55;;;;;;;2.70;2.50;;;;;;;1.97;100.00;96501.34;4934862;28;20888;-55
2022/02/22 01:00:24;;;;;;;2.60;2.40;;;;;;;1.96;100.00;96506.72;4922888;28;20214;-48
2022/02/22 01:02:52;;;;;;;2.63;2.43;;;;;;;1.99;100.00;96509.03;4945731;28;20245;-54
2022/02/22 01:05:21;;;;;;;1.97;1.73;;;;;;;1.96;100.00;96509.34;4940486;28;20333;-50
2022/02/22 01:07:50;;;;;;;3.00;1.97;;;;;;;2.10;100.00;96518.47;4940769;28;20719;-54
2022/02/22 01:10:18;;;;;;;2.60;2.23;;;;;;;2.08;100.00;96523.84;4907862;28;20417;-56
2022/02/22 01:12:47;;;;;;;3.60;2.00;;;;;;;2.09;100.00;96522.88;4936212;28;20309;-55
2022/02/22 01:15:15;;;;;;;2.50;1.93;;;;;;;1.98;100.00;96520.47;4942287;28;20285;-54
2022/02/22 01:17:43;;;;;;;5.07;2.30;;;;;;;2.00;100.00;96521.94;4930781;28;20242;-54
2022/02/22 01:20:12;;;;;;;1.43;1.40;;;;;;;2.01;100.00;96539.25;4945511;28;20214;-51
2022/02/22 01:22:41;;;;;;;1.70;1.67;;;;;;;1.99;100.00;96535.97;4945971;28;20226;-53
2022/02/22 01:25:11;;;;;;;1.53;1.43;;;;;;;2.12;100.00;96533.03;4944962;28;20223;-56
2022/02/22 01:27:40;;;;;;;3.90;1.73;;;;;;;2.14;100.00;96538.13;4897165;28;20222;-54
2022/02/22 01:30:09;;;;;;;2.93;2.00;;;;;;;2.12;100.00;96540.88;4947210;28;20202;-51
2022/02/22 01:32:37;;;;;;;2.03;1.83;;;;;;;2.09;100.00;96535.13;4924794;28;20230;-53
2022/02/22 01:35:07;;;;;;;2.43;1.73;;;;;;;2.12;100.00;96553.94;4945695;28;21007;-52
2022/02/22 01:37:35;;;;;;;4.53;1.43;;;;;;;2.02;100.00;96543.53;4941040;28;20215;-51
2022/02/22 01:40:07;;;;;;;2.50;2.00;;;;;;;1.87;100.00;96550.22;4946274;28;20199;-49
2022/02/22 01:42:37;;;;;;;2.33;2.23;;;;;;;1.76;100.00;96553.03;4894563;28;20211;-55
2022/02/22 01:45:08;;;;;;;1.30;1.30;;;;;;;1.71;100.00;96550.81;4942815;28;20223;-53
2022/02/22 01:47:37;;;;;;;1.33;1.30;;;;;;;1.70;100.00;96562.25;4932524;28;20210;-56
2022/02/22 01:50:08;;;;;;;2.07;1.63;;;;;;;1.68;100.00;96567.59;4943389;28;20211;-54
2022/02/22 01:52:36;;;;;;;3.30;1.70;;;;;;;1.66;100.00;96579.16;4945121;28;20230;-54
2022/02/22 01:55:05;;;;;;;1.63;1.53;;;;;;;1.65;100.00;96575.72;4944146;28;20278;-51
2022/02/22 01:57:34;;;;;;;1.40;1.30;;;;;;;1.72;100.00;96579.44;4905864;28;20272;-52
2022/02/22 02:00:08;;;;;;;3.13;1.43;;;;;;;1.66;100.00;96581.78;4931479;28;20214;-53
2022/02/22 02:02:36;;;;;;;1.63;1.53;;;;;;;1.59;100.00;96581.53;4929761;28;20318;-52
2022/02/22 02:05:06;;;;;;;1.43;1.33;;;;;;;1.56;100.00;96589.63;4944380;28;20226;-51
2022/02/22 02:07:34;;;;;;;1.50;1.50;;;;;;;1.52;100.00;96596.94;4946707;28;20643;-52
2022/02/22 02:10:02;;;;;;;3.13;1.37;;;;;;;1.49;100.00;96599.00;4943374;28;20226;-52
2022/02/22 02:12:36;;;;;;;3.50;1.67;;;;;;;1.68;100.00;96600.75;4906321;28;20321;-52
2022/02/22 02:15:07;;;;;;;2.47;2.07;;;;;;;1.72;100.00;96600.31;4928028;28;20456;-51
2022/02/22 02:17:36;;;;;;;1.63;1.53;;;;;;;1.65;100.00;96596.63;4930199;28;20210;-50
2022/02/22 02:20:05;;;;;;;1.63;1.53;;;;;;;1.67;100.00;96592.06;4943879;28;20238;-52
2022/02/22 02:22:35;;;;;;;1.93;1.60;;;;;;;1.76;100.00;96600.03;4945149;28;20312;-55
2022/02/22 02:25:05;;;;;;;3.43;1.70;;;;;;;1.68;100.00;96608.56;4944848;28;20318;-55
2022/02/22 02:27:34;;;;;;;1.47;1.37;;;;;;;1.82;100.00;96599.47;4939585;28;20211;-50
2022/02/22 02:30:03;;;;;;;1.70;1.57;;;;;;;1.79;100.00;96597.13;4907974;28;21707;-49
2022/02/22 02:32:32;;;;;;;1.97;1.73;;;;;;;1.78;100.00;96595.50;4930663;28;20675;-53
2022/02/22 02:35:00;;;;;;;3.77;2.20;;;;;;;1.94;100.00;96590.47;4941960;28;20227;-50
2022/02/22 02:37:28;;;;;;;1.70;1.60;;;;;;;1.85;100.00;96583.50;4943909;28;20542;-50
2022/02/22 02:39:58;;;;;;;3.53;2.33;;;;;;;1.84;100.00;96585.28;4945517;28;20206;-54
2022/02/22 02:42:26;;;;;;;3.37;2.43;;;;;;;1.98;100.00;96591.00;4946697;28;20208;-51
2022/02/22 02:44:54;;;;;;;2.47;1.97;;;;;;;1.89;100.00;96592.69;4889903;28;21364;-50
2022/02/22 02:47:24;;;;;;;2.83;1.30;;;;;;;1.84;100.00;96589.69;4947379;28;20241;-52
2022/02/22 02:49:52;;;;;;;1.33;1.23;;;;;;;1.91;100.00;96601.22;4925698;28;20299;-53
2022/02/22 02:52:20;;;;;;;4.20;1.87;;;;;;;1.88;100.00;96602.31;4948883;28;20214;-49
2022/02/22 02:54:48;;;;;;;1.87;1.77;;;;;;;1.94;100.00;96606.13;4944614;28;20235;-52
2022/02/22 02:57:18;;;;;;;4.60;2.00;;;;;;;1.92;100.00;96599.44;4944295;28;20262;-52
2022/02/22 02:59:48;;;;;;;4.40;1.67;;;;;;;1.93;100.00;96598.47;4902902;28;20280;-54
2022/02/22 03:02:16;;;;;;;6.23;2.67;;;;;;;1.85;100.00;96607.81;4929501;28;20247;-51
2022/02/22 03:04:44;;;;;;;4.00;1.90;;;;;;;1.94;100.00;96608.75;4919062;28;20235;-53
2022/02/22 03:07:13;;;;;;;2.53;2.10;;;;;;;1.93;100.00;96614.13;4948497;28;20707;-52
2022/02/22 03:09:41;;;;;;;3.67;1.97;;;;;;;1.93;100.00;96612.34;4944561;28;20207;-54
2022/02/22 03:12:09;;;;;;;2.43;2.23;;;;;;;1.83;100.00;96614.16;4943866;28;20584;-56
2022/02/22 03:14:40;;;;;;;1.70;1.60;;;;;;;1.96;100.00;96604.22;4929101;28;20231;-52
2022/02/22 03:17:08;;;;;;;3.33;1.80;;;;;;;1.90;100.00;96612.63;4917750;28;20203;-53
2022/02/22 03:19:36;;;;;;;5.63;1.67;;;;;;;1.91;100.00;96616.06;4925000;28;20266;-50
2022/02/22 03:22:05;;;;;;;4.13;1.80;;;;;;;1.92;100.00;96631.59;4932143;28;20203;-55
2022/02/22 03:24:34;;;;;;;1.70;1.60;;;;;;;1.95;100.00;96633.09;4943404;28;20230;-52
2022/02/22 03:27:02;;;;;;;2.00;1.63;;;;;;;1.98;100.00;96638.84;4946015;28;20264;-54
2022/02/22 03:29:30;;;;;;;1.83;1.73;;;;;;;2.01;100.00;96641.19;4946635;28;20838;-52
2022/02/22 03:32:00;;;;;;;1.77;1.63;;;;;;;2.08;100.00;96641.44;4893630;28;20221;-49
2022/02/22 03:34:28;;;;;;;3.03;1.50;;;;;;;2.14;100.00;96640.03;4923969;28;20231;-53
2022/02/22 03:36:57;;;;;;;4.87;1.80;;;;;;;2.18;100.00;96649.25;4926678;28;20959;-51
2022/02/22 03:39:25;;;;;;;4.33;2.10;;;;;;;2.11;100.00;96637.72;4943338;28;20230;-52
2022/02/22 03:41:53;;;;;;;2.90;1.60;;;;;;;2.17;100.00;96656.25;4941058;28;21104;-54
2022/02/22 03:44:21;;;;;;;2.03;1.83;;;;;;;2.16;100.00;96651.19;4922868;28;20268;-48
2022/02/22 03:46:50;;;;;;;3.00;1.40;;;;;;;2.10;100.00;96652.56;4886540;28;20240;-51
2022/02/22 03:49:19;;;;;;;3.27;1.80;;;;;;;2.09;100.00;96677.06;4921944;28;20727;-54
2022/02/22 03:51:47;;;;;;;3.90;1.90;;;;;;;2.20;100.00;96673.44;4921227;28;20280;-54
2022/02/22 03:54:15;;;;;;;1.57;1.47;;;;;;;2.18;100.00;96693.69;4946246;28;20238;-53
2022/02/22 03:56:44;;;;;;;5.80;2.00;;;;;;;2.23;100.00;96691.44;4942220;28;20207;-53
2022/02/22 03:59:12;;;;;;;2.13;1.90;;;;;;;2.21;100.00;96708.25;4944923;28;20237;-52
2022/02/22 04:01:40;;;;;;;2.20;1.97;;;;;;;2.25;100.00;96710.44;4907233;28;21632;-50
2022/02/22 04:04:09;;;;;;;3.50;1.60;;;;;;;2.24;100.00;96742.78;4925039;28;20226;-54
2022/02/22 04:06:39;;;;;;;2.53;1.83;;;;;;;2.10;100.00;96719.72;4923423;28;20214;-53
2022/02/22 04:09:08;;;;;;;6.03;2.63;;;;;;;2.00;100.00;96730.19;4947473;28;20233;-53
2022/02/22 04:11:36;;;;;;;1.30;1.27;;;;;;;1.95;100.00;96712.31;4944589;28;20199;-47
2022/02/22 04:14:05;;;;;;;6.83;2.23;;;;;;;2.01;100.00;96729.22;4917826;28;20317;-54
2022/02/22 04:16:33;;;;;;;2.13;1.93;;;;;;;1.98;100.00;96727.69;4945391;28;20858;-53
2022/02/22 04:19:01;;;;;;;4.47;1.87;;;;;;;2.06;100.00;96732.22;4883192;28;20215;-52
2022/02/22 04:21:29;;;;;;;3.97;1.90;;;;;;;2.05;100.00;96734.97;4924662;28;20213;-51
2022/02/22 04:24:00;;;;;;;5.73;2.80;;;;;;;2.10;100.00;96746.66;4951233;28;20279;-54
2022/02/22 04:26:28;;;;;;;3.03;1.83;;;;;;;2.09;100.00;96752.03;4943667;28;20457;-50
2022/02/22 04:29:00;;;;;;;2.33;1.77;;;;;;;2.20;100.00;96771.94;4949314;28;20207;-49
2022/02/22 04:31:28;;;;;;;2.13;1.93;;;;;;;2.13;100.00;96761.25;4942473;28;20505;-55
2022/02/22 04:33:56;;;;;;;4.03;1.83;;;;;;;2.17;100.00;96770.44;4899046;28;20226;-53
2022/02/22 04:36:25;;;;;;;5.17;1.90;;;;;;;2.14;100.00;96773.34;4921188;28;20227;-48
2022/02/22 04:38:53;;;;;;;3.33;1.93;;;;;;;2.24;100.00;96779.38;4948828;28;20203;-53
2022/02/22 04:41:22;;;;;;;3.30;1.87;;;;;;;2.15;100.00;96775.81;4926916;28;20223;-49
2022/02/22 04:43:51;;;;;;;3.63;1.67;;;;;;;2.20;100.00;96787.63;4948440;28;20293;-55
2022/02/22 04:46:20;;;;;;;2.77;1.90;;;;;;;2.20;100.00;96793.69;4914220;28;20214;-46
2022/02/22 04:48:48;;;;;;;3.57;3.27;;;;;;;2.11;100.00;96784.91;4892528;28;20729;-54
2022/02/22 04:51:16;;;;;;;7.87;2.47;;;;;;;2.06;100.00;96797.56;4897966;28;20630;-50
2022/02/22 04:53:45;;;;;;;4.40;1.87;;;;;;;2.10;100.00;96805.97;4948823;28;20311;-48
2022/02/22 04:56:13;;;;;;;4.97;2.57;;;;;;;2.07;100.00;96827.13;4948192;28;20945;-51
2022/02/22 04:58:42;;;;;;;3.13;1.70;;;;;;;2.11;100.00;96829.31;4945834;28;20215;-49
2022/02/22 05:01:11;;;;;;;8.37;2.80;;;;;;;2.09;100.00;96827.84;4948572;28;20221;-51
2022/02/22 05:03:39;;;;;;;8.67;3.20;;;;;;;1.97;100.00;96827.97;4947671;28;20548;-47
2022/02/22 05:06:07;;;;;;;5.23;1.87;;;;;;;2.06;100.00;96835.94;4879180;28;20429;-50
2022/02/22 05:08:35;;;;;;;7.13;2.60;;;;;;;2.12;100.00;96854.50;4946861;28;20693;-49
2022/02/22 05:11:03;;;;;;;2.13;2.00;;;;;;;2.01;100.00;96862.50;4923421;28;20479;-48
2022/02/22 05:13:32;;;;;;;4.30;1.90;;;;;;;1.94;100.00;96864.81;4947113;28;20227;-50
2022/02/22 05:16:01;;;;;;;5.30;1.93;;;;;;;1.80;100.00;96860.81;4941342;28;20234;-50
2022/02/22 05:18:29;;;;;;;4.10;2.20;;;;;;;1.64;100.00;96863.16;4949188;28;20693;-50
2022/02/22 05:20:58;;;;;;;2.50;1.83;;;;;;;1.55;100.00;96862.19;4903741;28;20211;-52
2022/02/22 05:23:27;;;;;;;3.10;1.97;;;;;;;1.51;100.00;96868.63;4948882;28;20226;-49
2022/02/22 05:25:56;;;;;;;4.00;2.57;;;;;;;1.42;100.00;96871.09;4927752;28;20202;-51
2022/02/22 05:28:26;;;;;;;1.93;1.83;;;;;;;1.35;100.00;96876.97;4945226;28;20214;-51
2022/02/22 05:30:54;;;;;;;2.30;2.10;;;;;;;1.29;100.00;96884.38;4946295;28;20273;-50
2022/02/22 05:33:24;;;;;;;2.10;1.83;;;;;;;1.35;100.00;96903.06;4945418;28;20930;-48
2022/02/22 05:35:54;;;;;;;4.20;2.00;;;;;;;1.22;100.00;96885.03;4929387;28;20650;-52
2022/02/22 05:38:22;;;;;;;4.10;2.70;;;;;;;1.13;100.00;96889.25;4906772;28;20222;-53
2022/02/22 05:40:50;;;;;;;5.80;2.23;;;;;;;1.14;100.00;96902.19;4928494;28;20711;-53
2022/02/22 05:43:19;;;;;;;4.27;2.27;;;;;;;1.04;100.00;96892.66;4950363;28;20206;-53
2022/02/22 05:45:47;;;;;;;12.67;2.97;;;;;;;1.11;100.00;96910.28;4948874;28;20768;-51
2022/02/22 05:48:16;;;;;;;4.30;2.37;;;;;;;1.02;100.00;96916.28;4949049;28;20710;-54
2022/02/22 05:50:46;;;;;;;2.53;1.80;;;;;;;1.01;100.00;96920.66;4945690;28;20238;-50
2022/02/22 05:53:14;;;;;;;3.27;2.30;;;;;;;0.86;100.00;96930.63;4913064;28;20246;-49
2022/02/22 05:55:43;;;;;;;10.77;3.27;;;;;;;0.91;100.00;96932.00;4946700;28;20226;-48
2022/02/22 05:58:11;;;;;;;5.17;2.57;;;;;;;0.82;100.00;96947.47;4925224;28;20402;-49
2022/02/22 06:00:39;;;;;;;4.67;2.23;;;;;;;0.74;100.00;96936.88;4943481;28;20229;-46
2022/02/22 06:03:08;;;;;;;2.73;2.03;;;;;;;0.85;100.00;96949.84;4944000;28;20487;-49
2022/02/22 06:05:37;;;;;;;2.57;2.10;;;;;;;0.95;100.00;96970.75;4948290;28;20207;-49
2022/02/22 06:08:06;;;;;;;11.03;2.43;;;;;;;0.80;100.00;96965.03;4899471;28;20346;-50
2022/02/22 06:10:35;;;;;;;5.40;2.87;;;;;;;0.86;100.00;96958.50;4944793;28;20573;-48
2022/02/22 06:13:04;;;;;;;5.17;2.60;;;;;;;0.93;100.00;96971.84;4921529;28;20219;-47
2022/02/22 06:15:32;;;;;;;7.30;2.60;;;;;;;0.92;100.00;96980.63;4926338;28;20249;-52
2022/02/22 06:18:00;;;;;;;9.63;2.70;;;;;;;0.76;100.00;96984.50;4945988;28;20285;-50
2022/02/22 06:20:30;;;;;;;6.47;3.17;;;;;;;0.76;100.00;96992.34;4926222;28;21047;-46
2022/02/22 06:22:59;;;;;;;8.53;3.40;;;;;;;0.93;100.00;96996.16;4944494;28;20523;-49
2022/02/22 06:25:30;;;;;;;4.97;3.13;;;;;;;0.88;100.00;96995.72;4898461;28;20219;-48
2022/02/22 06:27:58;;;;;;;5.20;2.90;;;;;;;1.11;100.00;97000.78;4920675;28;20540;-52
2022/02/22 06:30:27;;;;;;;4.13;2.53;;;;;;;1.15;100.00;97010.03;4946639;28;20743;-53
2022/02/22 06:32:55;;;;;;;5.13;2.70;;;;;;;1.15;100.00;97013.44;4944428;28;20264;-52
2022/02/22 06:35:25;;;;;;;4.83;2.67;;;;;;;1.44;100.00;97015.38;4921349;28;20245;-46
2022/02/22 06:37:53;;;;;;;4.60;2.13;;;;;;;1.52;100.00;97014.75;4942146;28;20651;-47
2022/02/22 06:40:22;;;;;;;4.13;2.50;;;;;;;1.46;100.00;97014.44;4898225;28;20222;-48
2022/02/22 06:42:54;;;;;;;5.07;2.83;;;;;;;1.56;100.00;97025.72;4920880;28;20536;-48
2022/02/22 06:45:22;;;;;;;6.83;2.37;;;;;;;1.67;100.00;97036.06;4943756;28;20397;-49
2022/02/22 06:47:50;;;;;;;3.50;2.73;;;;;;;1.73;100.00;97032.97;4946236;28;20667;-52
2022/02/22 06:50:19;;;;;;;8.20;2.70;;;;;;;1.79;100.00;97031.59;4923711;28;20699;-52
2022/02/22 06:52:47;;;;;;;3.30;2.27;;;;;;;1.96;100.00;97042.38;4945482;28;20293;-50
2022/02/22 06:55:15;;;;;;;3.57;2.40;;;;;;;2.00;100.00;97047.19;4895669;28;20281;-51
2022/02/22 06:57:48;;;;;;;4.77;2.87;;;;;;;2.03;100.00;97054.75;4943809;28;20324;-50
2022/02/22 07:00:18;;;;;;;3.27;2.20;;;;;;;1.94;100.00;97050.34;4925609;28;20241;-54
2022/02/22 07:02:46;;;;;;;3.97;2.33;;;;;;;2.10;100.00;97062.09;4945970;28;20699;-47
2022/02/22 07:05:16;;;;;;;5.43;3.00;;;;;;;1.92;100.00;97065.34;4923608;28;20531;-49
2022/02/22 07:07:50;;;;;;;5.57;2.43;;;;;;;1.88;100.00;97051.69;4943447;28;20223;-50
2022/02/22 07:10:19;;;;;;;6.90;2.73;;;;;;;1.90;100.00;97048.97;4900537;28;20295;-51
2022/02/22 07:12:49;;;;;;;5.40;3.43;;;;;;;1.70;100.00;97058.50;4939716;28;20255;-49
2022/02/22 07:15:17;;;;;;;4.17;2.57;;;;;;;1.74;100.00;97062.50;4926165;28;20246;-48
2022/02/22 07:17:47;;;;;;;3.30;2.13;;;;;;;1.63;100.00;97075.66;4944315;28;20202;-46
2022/02/22 07:20:15;;;;;;;7.50;2.83;;;;;;;1.57;100.00;97090.06;4923969;28;20222;-52
2022/02/22 07:22:45;;;;;;;5.93;2.80;;;;;;;1.50;100.00;97088.94;4942198;28;20599;-49
2022/02/22 07:25:14;;;;;;;3.10;2.73;;;;;;;1.47;100.00;97089.19;4947403;28;20234;-50
2022/02/22 07:27:44;;;;;;;4.47;2.53;;;;;;;1.60;100.00;97097.63;4886428;28;20222;-52
2022/02/22 07:30:15;;;;;;;7.27;3.20;;;;;;;1.68;100.00;97094.38;4921251;28;20655;-51
2022/02/22 07:32:44;;;;;;;5.73;2.67;;;;;;;1.80;100.00;97100.34;4920831;28;20873;-53
2022/02/22 07:35:12;;;;;;;5.10;2.53;;;;;;;1.85;100.00;97100.78;4925552;28;20703;-47
2022/02/22 07:37:44;;;;;;;3.03;2.80;;;;;;;1.91;100.00;97091.63;4942992;28;20689;-52
2022/02/22 07:40:14;;;;;;;8.23;3.00;;;;;;;2.17;100.00;97092.78;4945633;28;21075;-49
2022/02/22 07:42:43;;;;;;;4.30;2.67;;;;;;;2.21;100.00;97102.97;4907432;28;20216;-52
2022/02/22 07:45:12;;;;;;;6.50;2.13;;;;;;;2.31;100.00;97117.72;4944874;28;20777;-50
2022/02/22 07:47:42;;;;;;;5.47;2.40;;;;;;;2.38;100.00;97119.81;4932973;28;20218;-49
2022/02/22 07:50:11;;;;;;;6.53;2.90;;;;;;;2.34;100.00;97123.66;4919581;28;20355;-54
2022/02/22 07:52:39;;;;;;;6.63;2.67;;;;;;;2.25;100.00;97130.50;4940816;28;20270;-48
2022/02/22 07:55:08;;;;;;;5.13;2.53;;;;;;;2.43;100.00;97149.84;4943118;28;20284;-50
2022/02/22 07:57:39;;;;;;;4.97;2.67;;;;;;;2.58;100.00;97159.91;4917127;28;20226;-51
2022/02/22 08:00:09;;;;;;;6.00;2.77;;;;;;;2.48;100.00;97162.53;4946691;28;21012;-48
2022/02/22 08:02:37;;;;;;;7.97;2.90;;;;;;;2.48;100.00;97162.53;4935561;28;20241;-54
2022/02/22 08:05:08;;;;;;;4.70;3.03;;;;;;;2.46;100.00;97173.09;4931794;28;20406;-48
2022/02/22 08:07:36;;;;;;;6.30;2.33;;;;;;;2.71;100.00;97173.59;4935068;28;20646;-50
2022/02/22 08:10:06;;;;;;;3.80;2.43;;;;;;;2.90;100.00;97182.44;4950382;28;20198;-50
2022/02/22 08:12:34;;;;;;;2.60;2.20;;;;;;;2.75;100.00;97190.66;4948342;28;20552;-50
2022/02/22 08:15:03;;;;;;;5.43;2.10;;;;;;;2.76;100.00;97191.47;4908021;28;20424;-50
2022/02/22 08:17:32;;;;;;;1.83;1.70;;;;;;;2.93;100.00;97210.94;4945524;28;20230;-53
2022/02/22 08:20:00;;;;;;;3.40;2.43;;;;;;;2.96;100.00;97197.59;4918297;28;20221;-48
2022/02/22 08:22:30;;;;;;;3.60;1.70;;;;;;;2.98;100.00;97221.03;4932933;28;20234;-47
2022/02/22 08:24:58;;;;;;;4.30;2.60;;;;;;;2.94;100.00;97230.91;4943583;28;20222;-52
2022/02/22 08:27:26;;;;;;;4.97;3.17;;;;;;;2.96;100.00;97222.94;4951255;28;20544;-52
2022/02/22 08:29:55;;;;;;;4.17;3.40;;;;;;;2.77;100.00;97223.72;4907815;28;20234;-51
2022/02/22 08:32:23;;;;;;;7.70;2.53;;;;;;;2.65;100.00;97236.94;4948901;28;20567;-49
2022/02/22 08:34:51;;;;;;;5.73;2.37;;;;;;;2.64;100.00;97237.03;4926668;28;20431;-50
2022/02/22 08:37:19;;;;;;;4.30;2.53;;;;;;;2.90;100.00;97242.63;4934089;28;20237;-50
2022/02/22 08:39:49;;;;;;;2.40;2.20;;;;;;;2.97;100.00;97245.53;4944762;28;20206;-48
2022/02/22 08:42:17;;;;;;;4.30;2.50;;;;;;;3.25;100.00;97249.16;4949890;28;20297;-52
2022/02/22 08:44:54;;;;;;;3.43;2.20;;;;;;;3.42;100.00;97257.34;4902339;28;20248;-49
2022/02/22 08:47:22;;;;;;;6.13;2.73;;;;;;;3.36;100.00;97244.75;4947951;28;20217;-50
2022/02/22 08:49:51;;;;;;;9.03;3.00;;;;;;;3.35;100.00;97249.19;4932451;28;20243;-49
2022/02/22 08:52:19;;;;;;;6.50;2.80;;;;;;;3.45;100.00;97249.19;4933455;28;20304;-47
2022/02/22 08:54:50;;;;;;;4.40;2.30;;;;;;;3.60;100.00;97266.16;4943723;28;20223;-49
2022/02/22 08:57:19;;;;;;;2.40;1.90;;;;;;;3.71;100.00;97254.69;4949713;28;20226;-54
2022/02/22 08:59:48;;;;;;;4.07;2.53;;;;;;;3.85;100.00;97248.22;4920554;28;20269;-54
2022/02/22 09:02:16;;;;;;;6.47;2.87;;;;;;;4.12;100.00;97257.13;4940379;28;20634;-51
2022/02/22 09:04:45;;;;;;;6.90;3.60;;;;;;;4.20;100.00;97259.03;4938904;28;20238;-50
2022/02/22 09:07:13;;;;;;;4.70;2.77;;;;;;;4.78;100.00;97263.25;4912038;28;20452;-50
2022/02/22 09:09:41;;;;;;;7.63;2.10;;;;;;;5.25;100.00;97268.56;4948116;28;20298;-52
2022/02/22 09:12:11;;;;;;;3.77;1.80;;;;;;;5.25;100.00;97277.25;4945766;28;20217;-47
2022/02/22 09:14:39;;;;;;;5.53;1.90;;;;;;;5.18;100.00;97277.03;4946503;28;20234;-48
2022/02/22 09:17:07;;;;;;;3.00;2.03;;;;;;;4.76;100.00;97290.66;4908763;28;20405;-49
2022/02/22 09:19:36;;;;;;;7.13;2.17;;;;;;;4.70;100.00;97291.19;4946796;28;20210;-51
2022/02/22 09:22:08;;;;;;;3.33;2.10;;;;;;;4.67;100.00;97302.81;4906297;28;21668;-49
2022/02/22 09:24:36;;;;;;;5.03;2.60;;;;;;;4.40;100.00;97304.41;4948588;28;21025;-49
2022/02/22 09:27:04;;;;;;;4.63;2.17;;;;;;;4.10;100.00;97303.63;4946964;28;20326;-52
2022/02/22 09:29:37;;;;;;;3.23;2.07;;;;;;;4.18;100.00;97297.69;4948029;28;20446;-50
2022/02/22 09:32:06;;;;;;;3.57;1.80;;;;;;;4.30;100.00;97301.81;4902566;28;20227;-49
2022/02/22 09:34:34;;;;;;;5.73;2.20;;;;;;;4.31;100.00;97302.66;4946871;28;20226;-50
2022/02/22 09:37:04;;;;;;;4.47;2.13;;;;;;;4.28;100.00;97300.31;4917001;28;22879;-54
2022/02/22 09:39:32;;;;;;;3.27;2.23;;;;;;;4.25;100.00;97306.66;4930999;28;20631;-56
2022/02/22 09:42:01;;;;;;;4.10;2.10;;;;;;;4.12;100.00;97295.66;4941347;28;20207;-49
2022/02/22 09:44:29;;;;;;;6.53;2.50;;;;;;;4.05;100.00;97303.22;4945813;28;20226;-49
2022/02/22 09:46:59;;;;;;;5.40;2.23;;;;;;;4.04;100.00;97318.16;4905576;28;20320;-51
2022/02/22 09:49:27;;;;;;;3.13;2.20;;;;;;;4.11;100.00;97323.66;4945335;28;20679;-54
2022/02/22 09:51:56;;;;;;;5.33;2.23;;;;;;;4.09;100.00;97322.97;4917186;28;20439;-52
2022/02/22 09:54:25;;;;;;;3.57;1.93;;;;;;;4.25;100.00;97332.88;4931101;28;20324;-49
2022/02/22 09:56:53;;;;;;;5.67;2.07;;;;;;;3.96;100.00;97328.47;4942936;28;20266;-49
2022/02/22 09:59:22;;;;;;;6.17;2.47;;;;;;;4.02;100.00;97338.44;4947839;28;20221;-49
2022/02/22 10:01:53;;;;;;;4.53;2.37;;;;;;;3.83;100.00;97338.44;4909330;28;20225;-52
2022/02/22 10:04:24;;;;;;;3.93;2.70;;;;;;;3.89;100.00;97338.72;4943760;28;20230;-44
2022/02/22 10:07:01;;;;;;;3.40;1.97;;;;;;;3.94;100.00;97337.47;4925474;28;20625;-49
2022/02/22 10:09:29;;;;;;;5.23;2.57;;;;;;;4.11;100.00;97328.88;4931987;28;20691;-49
2022/02/22 10:11:58;;;;;;;6.00;2.67;;;;;;;4.14;100.00;97336.47;4928366;28;20211;-45
2022/02/22 10:14:28;;;;;;;7.20;3.20;;;;;;;4.21;100.00;97336.75;4948217;28;20723;-51
2022/02/22 10:16:57;;;;;;;5.43;2.23;;;;;;;4.47;100.00;97328.31;4940763;28;20450;-54
2022/02/22 10:19:29;;;;;;;4.37;2.93;;;;;;;5.10;100.00;97329.44;4904862;28;20218;-52
2022/02/22 10:21:57;;;;;;;7.67;2.37;;;;;;;5.28;100.00;97331.31;4927111;28;20226;-52
2022/02/22 10:24:30;;;;;;;6.17;2.70;;;;;;;5.26;100.00;97331.44;4929722;28;20614;-53
2022/02/22 10:27:02;;;;;;;3.70;2.40;;;;;;;5.56;100.00;97333.91;4926208;28;20387;-50
2022/02/22 10:29:32;;;;;;;9.90;2.90;;;;;;;5.43;100.00;97329.00;4946944;28;20206;-50
2022/02/22 10:32:11;;;;;;;5.53;2.37;;;;;;;5.01;100.00;97336.41;4941057;28;20209;-52
2022/02/22 10:34:41;;;;;;;8.10;3.00;;;;;;;4.83;100.00;97340.75;4902056;28;20773;-47
2022/02/22 10:37:10;;;;;;;5.23;2.57;;;;;;;4.88;100.00;97344.63;4927159;28;20781;-51
2022/02/22 10:39:39;;;;;;;2.30;1.77;;;;;;;5.10;100.00;97349.66;4946358;28;20218;-50
2022/02/22 10:42:08;;;;;;;7.33;2.63;;;;;;;4.96;100.00;97351.78;4920537;28;20749;-49
2022/02/22 10:44:38;;;;;;;2.47;2.10;;;;;;;4.91;100.00;97336.44;4944759;28;20230;-48
2022/02/22 10:47:16;;;;;;;2.77;2.40;;;;;;;5.68;100.00;97334.50;4937599;28;20199;-53
2022/02/22 10:49:48;;;;;;;8.80;2.67;;;;;;;6.10;100.00;97347.13;4919071;28;20206;-52
2022/02/22 10:52:19;;;;;;;6.90;2.73;;;;;;;5.82;100.00;97338.41;4927355;28;20214;-52
2022/02/22 10:54:58;;;;;;;4.73;2.80;;;;;;;5.42;100.00;97335.25;4931835;28;20277;-50
2022/02/22 10:57:27;;;;;;;4.17;2.17;;;;;;;5.14;100.00;97346.59;4927721;28;20238;-52
2022/02/22 10:59:56;;;;;;;5.97;2.37;;;;;;;5.28;100.00;97354.94;4937806;28;20859;-47
2022/02/22 11:02:25;;;;;;;5.07;2.23;;;;;;;5.13;100.00;97352.81;4942310;28;20239;-50
2022/02/22 11:04:56;;;;;;;5.27;2.50;;;;;;;5.28;100.00;97362.84;4900205;28;20627;-53
2022/02/22 11:07:26;;;;;;;5.40;2.10;;;;;;;5.10;100.00;97368.03;4940980;28;21061;-54
2022/02/22 11:09:57;;;;;;;5.03;2.37;;;;;;;5.35;100.00;97363.91;4922849;28;20425;-48
2022/02/22 11:12:29;;;;;;;5.13;2.83;;;;;;;5.27;100.00;97364.63;4921134;28;20703;-50
2022/02/22 11:15:05;;;;;;;6.40;2.67;;;;;;;5.22;100.00;97357.19;4943038;28;20351;-51
2022/02/22 11:17:46;;;;;;;6.43;2.17;;;;;;;5.24;100.00;97357.03;4942314;28;20222;-49
2022/02/22 11:20:26;;;;;;;6.20;2.83;;;;;;;5.38;100.00;97353.09;4905670;28;20314;-51
2022/02/22 11:22:58;;;;;;;5.57;2.80;;;;;;;5.29;100.00;97360.03;4923548;28;20245;-47
2022/02/22 11:25:30;;;;;;;6.40;3.03;;;;;;;4.96;100.00;97358.81;4943747;28;20230;-54
2022/02/22 11:28:05;;;;;;;4.10;1.90;;;;;;;4.98;100.00;97362.13;4919560;28;20630;-48
2022/02/22 11:30:34;;;;;;;4.23;2.00;;;;;;;4.77;100.00;97373.69;4941459;28;20210;-50
2022/02/22 11:33:06;;;;;;;3.20;2.33;;;;;;;4.47;100.00;97370.28;4938654;28;20273;-52
2022/02/22 11:35:48;;;;;;;6.37;2.77;;;;;;;4.18;100.00;97368.50;4942421;28;20668;-52
2022/02/22 11:38:17;;;;;;;4.33;2.03;;;;;;;4.01;100.00;97375.28;4937389;28;20768;-49
2022/02/22 11:40:50;;;;;;;6.10;3.10;;;;;;;4.18;100.00;97365.88;4931207;28;20264;-48
2022/02/22 11:43:19;;;;;;;8.67;3.70;;;;;;;4.40;100.00;97374.44;4918244;28;20309;-48